sensor_id;sensor_type;location;lat;lon;timestamp;P1;durP1;ratioP1;P2;durP2;ratioP2
18360;SDS011;9308;48.550;9.108;2023-06-14T00:00:17;5.80;;;5.40;;
18360;SDS011;9308;48.550;9.108;2023-06-14T00:02:42;6.53;;;6.03;;
18360;SDS011;9308;48.550;9.108;2023-06-14T00:05:08;5.70;;;5.20;;
18360;SDS011;9308;48.550;9.108;2023-06-14T00:07:34;6.13;;;5.53;;
18360;SDS011;9308;48.550;9.108;2023-06-14T00:10:00;5.53;;;5.10;;
18360;SDS011;9308;48.550;9.108;2023-06-14T00:12:27;6.10;;;5.50;;
18360;SDS011;9308;48.550;9.108;2023-06-14T00:14:52;6.50;;;5.90;;
18360;SDS011;9308;48.550;9.108;2023-06-14T00:17:17;6.20;;;5.60;;
18360;SDS011;9308;48.550;9.108;2023-06-14T00:19:43;6.07;;;5.50;;
18360;SDS011;9308;48.550;9.108;2023-06-14T00:22:08;6.13;;;5.53;;
18360;SDS011;9308;48.550;9.108;2023-06-14T00:24:34;5.57;;;5.07;;
18360;SDS011;9308;48.550;9.108;2023-06-14T00:27:00;5.93;;;5.43;;
18360;SDS011;9308;48.550;9.108;2023-06-14T00:29:25;7.17;;;5.10;;
18360;SDS011;9308;48.550;9.108;2023-06-14T00:31:51;7.20;;;5.70;;
18360;SDS011;9308;48.550;9.108;2023-06-14T00:34:16;6.03;;;5.50;;
18360;SDS011;9308;48.550;9.108;2023-06-14T00:36:42;5.90;;;5.50;;
18360;SDS011;9308;48.550;9.108;2023-06-14T00:39:07;6.33;;;5.83;;
18360;SDS011;9308;48.550;9.108;2023-06-14T00:41:34;6.90;;;6.30;;
18360;SDS011;9308;48.550;9.108;2023-06-14T00:44:00;7.17;;;6.57;;
18360;SDS011;9308;48.550;9.108;2023-06-14T00:46:25;7.83;;;7.13;;
18360;SDS011;9308;48.550;9.108;2023-06-14T00:48:51;8.20;;;7.50;;
18360;SDS011;9308;48.550;9.108;2023-06-14T00:51:16;7.10;;;6.53;;
18360;SDS011;9308;48.550;9.108;2023-06-14T00:53:42;7.33;;;6.57;;
18360;SDS011;9308;48.550;9.108;2023-06-14T00:56:12;6.67;;;6.07;;
18360;SDS011;9308;48.550;9.108;2023-06-14T00:58:38;6.20;;;5.70;;
18360;SDS011;9308;48.550;9.108;2023-06-14T01:01:04;7.40;;;5.53;;
18360;SDS011;9308;48.550;9.108;2023-06-14T01:03:30;6.53;;;6.03;;
18360;SDS011;9308;48.550;9.108;2023-06-14T01:06:10;5.77;;;5.27;;
18360;SDS011;9308;48.550;9.108;2023-06-14T01:08:56;7.10;;;6.07;;
18360;SDS011;9308;48.550;9.108;2023-06-14T01:11:32;6.07;;;5.53;;
18360;SDS011;9308;48.550;9.108;2023-06-14T01:14:09;6.30;;;5.70;;
18360;SDS011;9308;48.550;9.108;2023-06-14T01:16:37;6.27;;;5.77;;
18360;SDS011;9308;48.550;9.108;2023-06-14T01:19:05;6.40;;;5.80;;
18360;SDS011;9308;48.550;9.108;2023-06-14T01:21:33;6.70;;;6.10;;
18360;SDS011;9308;48.550;9.108;2023-06-14T01:24:06;6.50;;;5.83;;
18360;SDS011;9308;48.550;9.108;2023-06-14T01:26:34;6.50;;;6.00;;
18360;SDS011;9308;48.550;9.108;2023-06-14T01:29:02;5.80;;;5.30;;
18360;SDS011;9308;48.550;9.108;2023-06-14T01:31:28;6.53;;;6.03;;
18360;SDS011;9308;48.550;9.108;2023-06-14T01:33:54;6.53;;;5.93;;
18360;SDS011;9308;48.550;9.108;2023-06-14T01:36:20;6.43;;;5.80;;
18360;SDS011;9308;48.550;9.108;2023-06-14T01:38:47;7.47;;;6.87;;
18360;SDS011;9308;48.550;9.108;2023-06-14T01:41:15;6.77;;;6.17;;
18360;SDS011;9308;48.550;9.108;2023-06-14T01:43:42;6.70;;;6.20;;
18360;SDS011;9308;48.550;9.108;2023-06-14T01:46:08;6.63;;;6.13;;
18360;SDS011;9308;48.550;9.108;2023-06-14T01:48:35;6.90;;;6.30;;
18360;SDS011;9308;48.550;9.108;2023-06-14T01:51:00;7.53;;;6.20;;
18360;SDS011;9308;48.550;9.108;2023-06-14T01:53:26;6.67;;;6.07;;
18360;SDS011;9308;48.550;9.108;2023-06-14T01:55:51;7.20;;;6.60;;
18360;SDS011;9308;48.550;9.108;2023-06-14T01:58:19;7.47;;;6.87;;
18360;SDS011;9308;48.550;9.108;2023-06-14T02:00:44;7.03;;;6.47;;
18360;SDS011;9308;48.550;9.108;2023-06-14T02:03:10;7.00;;;6.40;;
18360;SDS011;9308;48.550;9.108;2023-06-14T02:05:37;6.50;;;5.90;;
18360;SDS011;9308;48.550;9.108;2023-06-14T02:08:04;6.97;;;6.47;;
18360;SDS011;9308;48.550;9.108;2023-06-14T02:10:30;6.63;;;6.03;;
18360;SDS011;9308;48.550;9.108;2023-06-14T02:12:56;6.73;;;6.23;;
18360;SDS011;9308;48.550;9.108;2023-06-14T02:15:21;7.00;;;6.40;;
18360;SDS011;9308;48.550;9.108;2023-06-14T02:17:47;7.10;;;6.50;;
18360;SDS011;9308;48.550;9.108;2023-06-14T02:20:14;7.07;;;6.47;;
18360;SDS011;9308;48.550;9.108;2023-06-14T02:22:40;7.23;;;6.60;;
18360;SDS011;9308;48.550;9.108;2023-06-14T02:25:06;6.00;;;5.50;;
18360;SDS011;9308;48.550;9.108;2023-06-14T02:27:32;7.07;;;6.47;;
18360;SDS011;9308;48.550;9.108;2023-06-14T02:29:58;6.53;;;5.97;;
18360;SDS011;9308;48.550;9.108;2023-06-14T02:32:25;7.13;;;6.53;;
18360;SDS011;9308;48.550;9.108;2023-06-14T02:34:51;6.83;;;6.33;;
18360;SDS011;9308;48.550;9.108;2023-06-14T02:37:18;7.27;;;6.57;;
18360;SDS011;9308;48.550;9.108;2023-06-14T02:39:44;6.43;;;5.93;;
18360;SDS011;9308;48.550;9.108;2023-06-14T02:42:09;6.30;;;5.80;;
18360;SDS011;9308;48.550;9.108;2023-06-14T02:44:35;7.40;;;6.47;;
18360;SDS011;9308;48.550;9.108;2023-06-14T02:47:01;7.57;;;6.90;;
18360;SDS011;9308;48.550;9.108;2023-06-14T02:49:26;7.00;;;5.60;;
18360;SDS011;9308;48.550;9.108;2023-06-14T02:51:52;7.23;;;6.53;;
18360;SDS011;9308;48.550;9.108;2023-06-14T02:54:17;7.03;;;6.53;;
18360;SDS011;9308;48.550;9.108;2023-06-14T02:56:43;6.97;;;6.23;;
18360;SDS011;9308;48.550;9.108;2023-06-14T02:59:09;6.90;;;6.30;;
18360;SDS011;9308;48.550;9.108;2023-06-14T03:01:34;8.33;;;6.57;;
18360;SDS011;9308;48.550;9.108;2023-06-14T03:04:03;6.77;;;6.17;;
18360;SDS011;9308;48.550;9.108;2023-06-14T03:06:29;8.20;;;6.17;;
18360;SDS011;9308;48.550;9.108;2023-06-14T03:08:55;6.63;;;6.03;;
18360;SDS011;9308;48.550;9.108;2023-06-14T03:11:25;6.80;;;6.20;;
18360;SDS011;9308;48.550;9.108;2023-06-14T03:13:51;6.77;;;6.27;;
18360;SDS011;9308;48.550;9.108;2023-06-14T03:16:17;7.03;;;6.33;;
18360;SDS011;9308;48.550;9.108;2023-06-14T03:18:47;6.93;;;6.23;;
18360;SDS011;9308;48.550;9.108;2023-06-14T03:21:18;6.83;;;6.20;;
18360;SDS011;9308;48.550;9.108;2023-06-14T03:23:45;8.80;;;7.00;;
18360;SDS011;9308;48.550;9.108;2023-06-14T03:26:11;7.23;;;6.63;;
18360;SDS011;9308;48.550;9.108;2023-06-14T03:28:40;6.40;;;5.90;;
18360;SDS011;9308;48.550;9.108;2023-06-14T03:31:06;7.67;;;5.90;;
18360;SDS011;9308;48.550;9.108;2023-06-14T03:33:32;7.47;;;6.60;;
18360;SDS011;9308;48.550;9.108;2023-06-14T03:35:57;7.07;;;6.47;;
18360;SDS011;9308;48.550;9.108;2023-06-14T03:38:23;7.10;;;6.40;;
18360;SDS011;9308;48.550;9.108;2023-06-14T03:40:48;7.10;;;6.50;;
18360;SDS011;9308;48.550;9.108;2023-06-14T03:43:14;6.70;;;6.00;;
18360;SDS011;9308;48.550;9.108;2023-06-14T03:45:40;7.33;;;6.60;;
18360;SDS011;9308;48.550;9.108;2023-06-14T03:48:05;7.90;;;6.50;;
18360;SDS011;9308;48.550;9.108;2023-06-14T03:50:32;7.87;;;7.17;;
18360;SDS011;9308;48.550;9.108;2023-06-14T03:52:57;7.40;;;6.70;;
18360;SDS011;9308;48.550;9.108;2023-06-14T03:55:23;7.93;;;6.83;;
18360;SDS011;9308;48.550;9.108;2023-06-14T03:57:51;7.63;;;5.80;;
18360;SDS011;9308;48.550;9.108;2023-06-14T04:00:17;6.80;;;6.30;;
18360;SDS011;9308;48.550;9.108;2023-06-14T04:02:43;7.03;;;6.40;;
18360;SDS011;9308;48.550;9.108;2023-06-14T04:05:09;6.23;;;5.73;;
18360;SDS011;9308;48.550;9.108;2023-06-14T04:07:35;6.17;;;5.67;;
18360;SDS011;9308;48.550;9.108;2023-06-14T04:10:05;7.17;;;6.57;;
18360;SDS011;9308;48.550;9.108;2023-06-14T04:12:32;7.10;;;6.50;;
18360;SDS011;9308;48.550;9.108;2023-06-14T04:14:57;7.20;;;6.50;;
18360;SDS011;9308;48.550;9.108;2023-06-14T04:17:22;6.77;;;6.27;;
18360;SDS011;9308;48.550;9.108;2023-06-14T04:19:48;6.87;;;6.33;;
18360;SDS011;9308;48.550;9.108;2023-06-14T04:22:13;5.97;;;5.47;;
18360;SDS011;9308;48.550;9.108;2023-06-14T04:24:38;6.77;;;6.17;;
18360;SDS011;9308;48.550;9.108;2023-06-14T04:27:04;6.90;;;6.20;;
18360;SDS011;9308;48.550;9.108;2023-06-14T04:29:29;6.30;;;5.70;;
18360;SDS011;9308;48.550;9.108;2023-06-14T04:31:56;6.90;;;6.30;;
18360;SDS011;9308;48.550;9.108;2023-06-14T04:34:26;6.17;;;5.67;;
18360;SDS011;9308;48.550;9.108;2023-06-14T04:36:57;10.17;;;7.23;;
18360;SDS011;9308;48.550;9.108;2023-06-14T04:39:24;7.63;;;6.93;;
18360;SDS011;9308;48.550;9.108;2023-06-14T04:41:51;7.90;;;7.20;;
18360;SDS011;9308;48.550;9.108;2023-06-14T04:44:18;7.23;;;6.63;;
18360;SDS011;9308;48.550;9.108;2023-06-14T04:46:45;7.77;;;6.20;;
18360;SDS011;9308;48.550;9.108;2023-06-14T04:49:14;7.57;;;6.60;;
18360;SDS011;9308;48.550;9.108;2023-06-14T04:51:44;7.03;;;6.43;;
18360;SDS011;9308;48.550;9.108;2023-06-14T04:54:11;6.83;;;6.30;;
18360;SDS011;9308;48.550;9.108;2023-06-14T04:56:40;6.50;;;6.00;;
18360;SDS011;9308;48.550;9.108;2023-06-14T04:59:05;7.17;;;6.57;;
18360;SDS011;9308;48.550;9.108;2023-06-14T05:01:31;8.73;;;7.20;;
18360;SDS011;9308;48.550;9.108;2023-06-14T05:03:58;7.97;;;7.20;;
18360;SDS011;9308;48.550;9.108;2023-06-14T05:06:24;6.90;;;6.40;;
18360;SDS011;9308;48.550;9.108;2023-06-14T05:08:49;7.33;;;6.73;;
18360;SDS011;9308;48.550;9.108;2023-06-14T05:11:15;7.87;;;7.07;;
18360;SDS011;9308;48.550;9.108;2023-06-14T05:13:42;7.30;;;6.70;;
18360;SDS011;9308;48.550;9.108;2023-06-14T05:16:08;7.80;;;7.10;;
18360;SDS011;9308;48.550;9.108;2023-06-14T05:18:34;7.53;;;6.73;;
18360;SDS011;9308;48.550;9.108;2023-06-14T05:21:00;6.70;;;6.10;;
18360;SDS011;9308;48.550;9.108;2023-06-14T05:23:26;7.57;;;6.87;;
18360;SDS011;9308;48.550;9.108;2023-06-14T05:25:51;7.33;;;6.70;;
18360;SDS011;9308;48.550;9.108;2023-06-14T05:28:17;8.67;;;7.47;;
18360;SDS011;9308;48.550;9.108;2023-06-14T05:30:42;8.07;;;7.37;;
18360;SDS011;9308;48.550;9.108;2023-06-14T05:33:08;8.20;;;7.53;;
18360;SDS011;9308;48.550;9.108;2023-06-14T05:35:33;8.03;;;7.23;;
18360;SDS011;9308;48.550;9.108;2023-06-14T05:37:59;7.20;;;6.60;;
18360;SDS011;9308;48.550;9.108;2023-06-14T05:40:24;8.23;;;7.43;;
18360;SDS011;9308;48.550;9.108;2023-06-14T05:42:49;7.90;;;7.20;;
18360;SDS011;9308;48.550;9.108;2023-06-14T05:45:15;7.43;;;6.80;;
18360;SDS011;9308;48.550;9.108;2023-06-14T05:47:41;7.70;;;7.00;;
18360;SDS011;9308;48.550;9.108;2023-06-14T05:50:07;8.10;;;7.40;;
18360;SDS011;9308;48.550;9.108;2023-06-14T05:52:33;8.40;;;7.63;;
18360;SDS011;9308;48.550;9.108;2023-06-14T05:54:59;7.50;;;6.80;;
18360;SDS011;9308;48.550;9.108;2023-06-14T05:57:25;7.87;;;7.17;;
18360;SDS011;9308;48.550;9.108;2023-06-14T05:59:50;8.20;;;7.50;;
18360;SDS011;9308;48.550;9.108;2023-06-14T06:02:16;8.00;;;7.30;;
18360;SDS011;9308;48.550;9.108;2023-06-14T06:04:42;8.33;;;7.37;;
18360;SDS011;9308;48.550;9.108;2023-06-14T06:07:07;7.93;;;7.10;;
18360;SDS011;9308;48.550;9.108;2023-06-14T06:09:33;8.47;;;7.67;;
18360;SDS011;9308;48.550;9.108;2023-06-14T06:11:58;7.33;;;6.77;;
18360;SDS011;9308;48.550;9.108;2023-06-14T06:14:23;7.27;;;6.67;;
18360;SDS011;9308;48.550;9.108;2023-06-14T06:16:49;8.23;;;7.53;;
18360;SDS011;9308;48.550;9.108;2023-06-14T06:19:15;8.00;;;7.30;;
18360;SDS011;9308;48.550;9.108;2023-06-14T06:21:40;7.40;;;6.80;;
18360;SDS011;9308;48.550;9.108;2023-06-14T06:24:06;8.00;;;7.30;;
18360;SDS011;9308;48.550;9.108;2023-06-14T06:26:31;10.53;;;7.30;;
18360;SDS011;9308;48.550;9.108;2023-06-14T06:28:58;8.50;;;7.80;;
18360;SDS011;9308;48.550;9.108;2023-06-14T06:31:23;9.30;;;7.83;;
18360;SDS011;9308;48.550;9.108;2023-06-14T06:33:49;7.33;;;6.63;;
18360;SDS011;9308;48.550;9.108;2023-06-14T06:36:15;7.80;;;7.00;;
18360;SDS011;9308;48.550;9.108;2023-06-14T06:38:41;8.17;;;7.37;;
18360;SDS011;9308;48.550;9.108;2023-06-14T06:41:06;8.30;;;7.50;;
18360;SDS011;9308;48.550;9.108;2023-06-14T06:43:31;7.70;;;7.00;;
18360;SDS011;9308;48.550;9.108;2023-06-14T06:45:57;7.40;;;6.67;;
18360;SDS011;9308;48.550;9.108;2023-06-14T06:48:22;7.60;;;6.87;;
18360;SDS011;9308;48.550;9.108;2023-06-14T06:50:48;8.27;;;7.47;;
18360;SDS011;9308;48.550;9.108;2023-06-14T06:53:13;7.80;;;7.10;;
18360;SDS011;9308;48.550;9.108;2023-06-14T06:55:38;7.90;;;7.10;;
18360;SDS011;9308;48.550;9.108;2023-06-14T06:58:04;8.00;;;7.30;;
18360;SDS011;9308;48.550;9.108;2023-06-14T07:00:30;8.20;;;6.20;;
18360;SDS011;9308;48.550;9.108;2023-06-14T07:02:56;7.97;;;7.17;;
18360;SDS011;9308;48.550;9.108;2023-06-14T07:05:22;7.40;;;6.80;;
18360;SDS011;9308;48.550;9.108;2023-06-14T07:07:48;8.13;;;7.50;;
18360;SDS011;9308;48.550;9.108;2023-06-14T07:10:13;7.90;;;7.17;;
18360;SDS011;9308;48.550;9.108;2023-06-14T07:12:39;8.20;;;7.13;;
18360;SDS011;9308;48.550;9.108;2023-06-14T07:15:06;6.60;;;6.00;;
18360;SDS011;9308;48.550;9.108;2023-06-14T07:17:32;7.77;;;7.00;;
18360;SDS011;9308;48.550;9.108;2023-06-14T07:19:59;7.80;;;7.20;;
18360;SDS011;9308;48.550;9.108;2023-06-14T07:22:26;7.70;;;7.10;;
18360;SDS011;9308;48.550;9.108;2023-06-14T07:24:51;7.50;;;6.90;;
18360;SDS011;9308;48.550;9.108;2023-06-14T07:27:16;7.57;;;6.87;;
18360;SDS011;9308;48.550;9.108;2023-06-14T07:29:42;7.23;;;6.63;;
18360;SDS011;9308;48.550;9.108;2023-06-14T07:32:07;8.33;;;7.53;;
18360;SDS011;9308;48.550;9.108;2023-06-14T07:34:33;8.20;;;7.40;;
18360;SDS011;9308;48.550;9.108;2023-06-14T07:36:58;8.57;;;7.80;;
18360;SDS011;9308;48.550;9.108;2023-06-14T07:39:24;8.43;;;7.63;;
18360;SDS011;9308;48.550;9.108;2023-06-14T07:41:49;7.30;;;6.70;;
18360;SDS011;9308;48.550;9.108;2023-06-14T07:44:15;7.90;;;7.20;;
18360;SDS011;9308;48.550;9.108;2023-06-14T07:46:41;6.83;;;6.10;;
18360;SDS011;9308;48.550;9.108;2023-06-14T07:49:06;7.13;;;6.43;;
18360;SDS011;9308;48.550;9.108;2023-06-14T07:51:32;7.40;;;6.67;;
18360;SDS011;9308;48.550;9.108;2023-06-14T07:53:59;7.30;;;6.70;;
18360;SDS011;9308;48.550;9.108;2023-06-14T07:56:26;8.30;;;6.77;;
18360;SDS011;9308;48.550;9.108;2023-06-14T07:58:51;8.10;;;6.83;;
18360;SDS011;9308;48.550;9.108;2023-06-14T08:01:17;7.27;;;6.20;;
18360;SDS011;9308;48.550;9.108;2023-06-14T08:03:42;7.13;;;6.43;;
18360;SDS011;9308;48.550;9.108;2023-06-14T08:06:08;6.97;;;6.37;;
18360;SDS011;9308;48.550;9.108;2023-06-14T08:08:33;7.30;;;6.60;;
18360;SDS011;9308;48.550;9.108;2023-06-14T08:10:59;7.10;;;6.40;;
18360;SDS011;9308;48.550;9.108;2023-06-14T08:13:24;6.33;;;5.83;;
18360;SDS011;9308;48.550;9.108;2023-06-14T08:15:50;6.00;;;5.57;;
18360;SDS011;9308;48.550;9.108;2023-06-14T08:18:16;6.53;;;5.53;;
18360;SDS011;9308;48.550;9.108;2023-06-14T08:20:41;6.20;;;5.57;;
18360;SDS011;9308;48.550;9.108;2023-06-14T08:23:07;6.93;;;6.33;;
18360;SDS011;9308;48.550;9.108;2023-06-14T08:25:33;5.90;;;5.30;;
18360;SDS011;9308;48.550;9.108;2023-06-14T08:27:58;6.13;;;5.50;;
18360;SDS011;9308;48.550;9.108;2023-06-14T08:30:24;6.47;;;5.83;;
18360;SDS011;9308;48.550;9.108;2023-06-14T08:32:49;6.60;;;6.00;;
18360;SDS011;9308;48.550;9.108;2023-06-14T08:35:16;6.67;;;6.07;;
18360;SDS011;9308;48.550;9.108;2023-06-14T08:37:41;5.83;;;5.33;;
18360;SDS011;9308;48.550;9.108;2023-06-14T08:40:20;6.60;;;6.00;;
18360;SDS011;9308;48.550;9.108;2023-06-14T08:42:47;6.53;;;5.10;;
18360;SDS011;9308;48.550;9.108;2023-06-14T08:45:19;5.93;;;5.43;;
18360;SDS011;9308;48.550;9.108;2023-06-14T08:47:46;8.10;;;5.33;;
18360;SDS011;9308;48.550;9.108;2023-06-14T08:50:26;7.70;;;6.37;;
18360;SDS011;9308;48.550;9.108;2023-06-14T08:52:55;6.83;;;6.20;;
18360;SDS011;9308;48.550;9.108;2023-06-14T08:55:25;7.30;;;5.87;;
18360;SDS011;9308;48.550;9.108;2023-06-14T08:57:53;6.80;;;6.10;;
18360;SDS011;9308;48.550;9.108;2023-06-14T09:00:20;6.90;;;6.30;;
18360;SDS011;9308;48.550;9.108;2023-06-14T09:02:46;7.00;;;6.40;;
18360;SDS011;9308;48.550;9.108;2023-06-14T09:05:12;6.10;;;5.53;;
18360;SDS011;9308;48.550;9.108;2023-06-14T09:07:39;7.03;;;6.37;;
18360;SDS011;9308;48.550;9.108;2023-06-14T09:10:09;7.67;;;6.90;;
18360;SDS011;9308;48.550;9.108;2023-06-14T09:12:35;7.13;;;6.57;;
18360;SDS011;9308;48.550;9.108;2023-06-14T09:15:02;8.20;;;6.13;;
18360;SDS011;9308;48.550;9.108;2023-06-14T09:17:37;7.10;;;6.33;;
18360;SDS011;9308;48.550;9.108;2023-06-14T09:20:04;7.10;;;6.60;;
18360;SDS011;9308;48.550;9.108;2023-06-14T09:22:35;6.93;;;6.07;;
18360;SDS011;9308;48.550;9.108;2023-06-14T09:25:01;7.53;;;6.70;;
18360;SDS011;9308;48.550;9.108;2023-06-14T09:27:30;7.43;;;6.70;;
18360;SDS011;9308;48.550;9.108;2023-06-14T09:29:56;8.37;;;6.33;;
18360;SDS011;9308;48.550;9.108;2023-06-14T09:32:21;6.40;;;5.37;;
18360;SDS011;9308;48.550;9.108;2023-06-14T09:34:47;7.37;;;6.67;;
18360;SDS011;9308;48.550;9.108;2023-06-14T09:37:13;7.30;;;6.70;;
18360;SDS011;9308;48.550;9.108;2023-06-14T09:39:51;6.60;;;6.10;;
18360;SDS011;9308;48.550;9.108;2023-06-14T09:42:17;6.80;;;5.97;;
18360;SDS011;9308;48.550;9.108;2023-06-14T09:44:47;6.63;;;5.97;;
18360;SDS011;9308;48.550;9.108;2023-06-14T09:47:17;6.93;;;6.17;;
18360;SDS011;9308;48.550;9.108;2023-06-14T09:49:42;6.63;;;6.03;;
18360;SDS011;9308;48.550;9.108;2023-06-14T09:52:13;6.53;;;5.90;;
18360;SDS011;9308;48.550;9.108;2023-06-14T09:54:43;6.30;;;5.00;;
18360;SDS011;9308;48.550;9.108;2023-06-14T09:57:11;7.30;;;5.60;;
18360;SDS011;9308;48.550;9.108;2023-06-14T09:59:39;5.80;;;5.30;;
18360;SDS011;9308;48.550;9.108;2023-06-14T10:02:14;6.20;;;5.60;;
18360;SDS011;9308;48.550;9.108;2023-06-14T10:05:03;6.20;;;5.60;;
18360;SDS011;9308;48.550;9.108;2023-06-14T10:07:32;6.27;;;5.77;;
18360;SDS011;9308;48.550;9.108;2023-06-14T10:10:02;6.10;;;5.70;;
18360;SDS011;9308;48.550;9.108;2023-06-14T10:12:28;6.60;;;6.10;;
18360;SDS011;9308;48.550;9.108;2023-06-14T10:14:55;5.63;;;5.10;;
18360;SDS011;9308;48.550;9.108;2023-06-14T10:17:26;6.83;;;5.80;;
18360;SDS011;9308;48.550;9.108;2023-06-14T10:22:44;6.17;;;5.57;;
18360;SDS011;9308;48.550;9.108;2023-06-14T10:25:27;5.70;;;5.20;;
18360;SDS011;9308;48.550;9.108;2023-06-14T10:28:29;6.03;;;5.53;;
18360;SDS011;9308;48.550;9.108;2023-06-14T10:31:05;6.03;;;5.57;;
18360;SDS011;9308;48.550;9.108;2023-06-14T10:33:34;7.47;;;6.03;;
18360;SDS011;9308;48.550;9.108;2023-06-14T10:38:56;6.13;;;5.60;;
18360;SDS011;9308;48.550;9.108;2023-06-14T10:41:35;5.90;;;5.40;;
18360;SDS011;9308;48.550;9.108;2023-06-14T10:46:48;7.37;;;6.00;;
18360;SDS011;9308;48.550;9.108;2023-06-14T10:49:18;6.40;;;5.80;;
18360;SDS011;9308;48.550;9.108;2023-06-14T10:51:45;6.33;;;5.73;;
18360;SDS011;9308;48.550;9.108;2023-06-14T10:54:15;6.97;;;5.90;;
18360;SDS011;9308;48.550;9.108;2023-06-14T10:56:45;6.80;;;6.03;;
18360;SDS011;9308;48.550;9.108;2023-06-14T10:59:12;6.40;;;5.90;;
18360;SDS011;9308;48.550;9.108;2023-06-14T11:01:40;7.30;;;5.87;;
18360;SDS011;9308;48.550;9.108;2023-06-14T11:04:12;5.47;;;5.07;;
18360;SDS011;9308;48.550;9.108;2023-06-14T11:06:47;7.00;;;5.77;;
18360;SDS011;9308;48.550;9.108;2023-06-14T11:12:10;6.83;;;6.33;;
18360;SDS011;9308;48.550;9.108;2023-06-14T11:14:37;6.73;;;6.20;;
18360;SDS011;9308;48.550;9.108;2023-06-14T11:17:03;6.60;;;5.60;;
18360;SDS011;9308;48.550;9.108;2023-06-14T11:19:29;6.50;;;5.70;;
18360;SDS011;9308;48.550;9.108;2023-06-14T11:21:55;5.83;;;5.43;;
18360;SDS011;9308;48.550;9.108;2023-06-14T11:24:20;7.90;;;6.60;;
18360;SDS011;9308;48.550;9.108;2023-06-14T11:26:46;6.57;;;5.97;;
18360;SDS011;9308;48.550;9.108;2023-06-14T11:29:14;5.70;;;5.30;;
18360;SDS011;9308;48.550;9.108;2023-06-14T11:31:43;8.27;;;5.97;;
18360;SDS011;9308;48.550;9.108;2023-06-14T11:34:10;7.53;;;5.40;;
18360;SDS011;9308;48.550;9.108;2023-06-14T11:36:38;6.97;;;6.43;;
18360;SDS011;9308;48.550;9.108;2023-06-14T11:39:04;9.97;;;6.77;;
18360;SDS011;9308;48.550;9.108;2023-06-14T11:41:32;6.07;;;5.63;;
18360;SDS011;9308;48.550;9.108;2023-06-14T11:44:02;6.00;;;5.47;;
18360;SDS011;9308;48.550;9.108;2023-06-14T11:46:28;6.03;;;5.40;;
18360;SDS011;9308;48.550;9.108;2023-06-14T11:48:54;5.80;;;5.30;;
18360;SDS011;9308;48.550;9.108;2023-06-14T11:51:19;5.73;;;5.20;;
18360;SDS011;9308;48.550;9.108;2023-06-14T11:53:45;6.07;;;5.67;;
18360;SDS011;9308;48.550;9.108;2023-06-14T11:56:11;6.20;;;5.60;;
18360;SDS011;9308;48.550;9.108;2023-06-14T11:58:37;6.83;;;6.10;;
18360;SDS011;9308;48.550;9.108;2023-06-14T12:01:03;5.80;;;5.30;;
18360;SDS011;9308;48.550;9.108;2023-06-14T12:03:29;7.90;;;5.73;;
18360;SDS011;9308;48.550;9.108;2023-06-14T12:06:06;6.20;;;5.70;;
18360;SDS011;9308;48.550;9.108;2023-06-14T12:08:33;6.50;;;6.00;;
18360;SDS011;9308;48.550;9.108;2023-06-14T12:11:12;5.90;;;5.50;;
18360;SDS011;9308;48.550;9.108;2023-06-14T12:13:39;6.30;;;5.80;;
18360;SDS011;9308;48.550;9.108;2023-06-14T12:16:06;6.23;;;5.67;;
18360;SDS011;9308;48.550;9.108;2023-06-14T12:18:33;5.87;;;5.47;;
18360;SDS011;9308;48.550;9.108;2023-06-14T12:21:00;5.97;;;5.57;;
18360;SDS011;9308;48.550;9.108;2023-06-14T12:23:37;6.87;;;5.63;;
18360;SDS011;9308;48.550;9.108;2023-06-14T12:26:14;6.67;;;6.07;;
18360;SDS011;9308;48.550;9.108;2023-06-14T12:28:41;6.17;;;5.70;;
18360;SDS011;9308;48.550;9.108;2023-06-14T12:31:08;5.83;;;5.33;;
18360;SDS011;9308;48.550;9.108;2023-06-14T12:33:34;6.47;;;5.97;;
18360;SDS011;9308;48.550;9.108;2023-06-14T12:35:59;6.60;;;6.00;;
18360;SDS011;9308;48.550;9.108;2023-06-14T12:38:25;6.27;;;5.67;;
18360;SDS011;9308;48.550;9.108;2023-06-14T12:40:50;6.90;;;6.23;;
18360;SDS011;9308;48.550;9.108;2023-06-14T12:43:16;6.03;;;5.43;;
18360;SDS011;9308;48.550;9.108;2023-06-14T12:45:41;5.93;;;5.50;;
18360;SDS011;9308;48.550;9.108;2023-06-14T12:48:07;6.60;;;5.80;;
18360;SDS011;9308;48.550;9.108;2023-06-14T12:50:34;6.47;;;5.83;;
18360;SDS011;9308;48.550;9.108;2023-06-14T12:52:59;6.23;;;5.10;;
18360;SDS011;9308;48.550;9.108;2023-06-14T12:55:25;6.33;;;5.87;;
18360;SDS011;9308;48.550;9.108;2023-06-14T12:57:50;6.73;;;6.10;;
18360;SDS011;9308;48.550;9.108;2023-06-14T13:00:16;6.70;;;6.20;;
18360;SDS011;9308;48.550;9.108;2023-06-14T13:02:43;6.60;;;6.00;;
18360;SDS011;9308;48.550;9.108;2023-06-14T13:05:08;6.67;;;5.97;;
18360;SDS011;9308;48.550;9.108;2023-06-14T13:07:34;6.17;;;5.57;;
18360;SDS011;9308;48.550;9.108;2023-06-14T13:10:00;6.60;;;6.00;;
18360;SDS011;9308;48.550;9.108;2023-06-14T13:12:25;6.97;;;5.80;;
18360;SDS011;9308;48.550;9.108;2023-06-14T13:14:51;6.70;;;6.20;;
18360;SDS011;9308;48.550;9.108;2023-06-14T13:17:16;6.37;;;5.90;;
18360;SDS011;9308;48.550;9.108;2023-06-14T13:19:41;6.67;;;6.17;;
18360;SDS011;9308;48.550;9.108;2023-06-14T13:22:07;6.60;;;6.03;;
18360;SDS011;9308;48.550;9.108;2023-06-14T13:24:33;8.23;;;6.50;;
18360;SDS011;9308;48.550;9.108;2023-06-14T13:26:59;7.00;;;6.40;;
18360;SDS011;9308;48.550;9.108;2023-06-14T13:29:25;6.17;;;5.67;;
18360;SDS011;9308;48.550;9.108;2023-06-14T13:31:51;6.70;;;6.00;;
18360;SDS011;9308;48.550;9.108;2023-06-14T13:34:17;6.47;;;5.90;;
18360;SDS011;9308;48.550;9.108;2023-06-14T13:36:43;8.40;;;6.07;;
18360;SDS011;9308;48.550;9.108;2023-06-14T13:39:09;6.47;;;5.93;;
18360;SDS011;9308;48.550;9.108;2023-06-14T13:41:36;6.00;;;5.60;;
18360;SDS011;9308;48.550;9.108;2023-06-14T13:44:01;6.53;;;5.93;;
18360;SDS011;9308;48.550;9.108;2023-06-14T13:46:29;5.73;;;5.33;;
18360;SDS011;9308;48.550;9.108;2023-06-14T13:48:54;6.50;;;5.90;;
18360;SDS011;9308;48.550;9.108;2023-06-14T13:51:20;6.53;;;5.80;;
18360;SDS011;9308;48.550;9.108;2023-06-14T13:53:46;6.27;;;5.37;;
18360;SDS011;9308;48.550;9.108;2023-06-14T13:56:13;6.23;;;5.73;;
18360;SDS011;9308;48.550;9.108;2023-06-14T13:58:39;5.67;;;5.27;;
18360;SDS011;9308;48.550;9.108;2023-06-14T14:01:05;6.40;;;5.83;;
18360;SDS011;9308;48.550;9.108;2023-06-14T14:03:30;7.20;;;5.30;;
18360;SDS011;9308;48.550;9.108;2023-06-14T14:05:57;6.60;;;6.00;;
18360;SDS011;9308;48.550;9.108;2023-06-14T14:08:22;6.83;;;6.17;;
18360;SDS011;9308;48.550;9.108;2023-06-14T14:10:48;5.53;;;5.13;;
18360;SDS011;9308;48.550;9.108;2023-06-14T14:13:13;6.33;;;5.70;;
18360;SDS011;9308;48.550;9.108;2023-06-14T14:15:39;6.53;;;5.90;;
18360;SDS011;9308;48.550;9.108;2023-06-14T14:18:05;6.67;;;6.07;;
18360;SDS011;9308;48.550;9.108;2023-06-14T14:20:30;5.97;;;5.47;;
18360;SDS011;9308;48.550;9.108;2023-06-14T14:22:56;6.30;;;5.80;;
18360;SDS011;9308;48.550;9.108;2023-06-14T14:25:21;5.80;;;5.40;;
18360;SDS011;9308;48.550;9.108;2023-06-14T14:27:47;6.63;;;6.13;;
18360;SDS011;9308;48.550;9.108;2023-06-14T14:30:13;6.87;;;6.17;;
18360;SDS011;9308;48.550;9.108;2023-06-14T14:32:42;6.73;;;6.17;;
18360;SDS011;9308;48.550;9.108;2023-06-14T14:35:09;5.87;;;5.33;;
18360;SDS011;9308;48.550;9.108;2023-06-14T14:37:34;6.20;;;5.63;;
18360;SDS011;9308;48.550;9.108;2023-06-14T14:40:00;6.53;;;6.07;;
18360;SDS011;9308;48.550;9.108;2023-06-14T14:42:26;5.90;;;5.40;;
18360;SDS011;9308;48.550;9.108;2023-06-14T14:44:53;6.50;;;6.00;;
18360;SDS011;9308;48.550;9.108;2023-06-14T14:47:18;5.90;;;5.30;;
18360;SDS011;9308;48.550;9.108;2023-06-14T14:49:44;6.53;;;6.00;;
18360;SDS011;9308;48.550;9.108;2023-06-14T14:52:09;6.00;;;5.60;;
18360;SDS011;9308;48.550;9.108;2023-06-14T14:54:35;6.50;;;6.00;;
18360;SDS011;9308;48.550;9.108;2023-06-14T14:57:01;5.63;;;5.23;;
18360;SDS011;9308;48.550;9.108;2023-06-14T14:59:26;5.97;;;5.57;;
18360;SDS011;9308;48.550;9.108;2023-06-14T15:01:52;6.50;;;6.00;;
18360;SDS011;9308;48.550;9.108;2023-06-14T15:04:17;6.30;;;5.80;;
18360;SDS011;9308;48.550;9.108;2023-06-14T15:06:43;6.17;;;5.57;;
18360;SDS011;9308;48.550;9.108;2023-06-14T15:09:08;6.60;;;5.93;;